createdAt,value
2023-03-28T00:00:49.821Z,-0.36
2023-03-28T00:01:41.707Z,-0.46
2023-03-28T00:02:33.206Z,-0.54
2023-03-28T00:03:27.201Z,-0.60
2023-03-28T00:04:22.730Z,-0.65
2023-03-28T00:05:14.182Z,-0.66
2023-03-28T00:06:10.932Z,-0.75
2023-03-28T00:07:03.577Z,-0.83
2023-03-28T00:07:56.550Z,-0.91
2023-03-28T00:08:49.915Z,-0.97
2023-03-28T00:09:41.633Z,-1.02
2023-03-28T00:10:33.052Z,-1.05
2023-03-28T00:11:25.614Z,-1.08
2023-03-28T00:12:17.140Z,-1.11
2023-03-28T00:13:09.745Z,-1.15
2023-03-28T00:14:01.523Z,-1.13
2023-03-28T00:14:52.992Z,-1.11
2023-03-28T00:15:44.697Z,-1.15
2023-03-28T00:16:39.203Z,-1.16
2023-03-28T00:17:30.966Z,-1.20
2023-03-28T00:18:22.519Z,-1.23
2023-03-28T00:19:20.474Z,-1.23
2023-03-28T00:20:13.898Z,-1.24
2023-03-28T00:21:19.544Z,-1.22
2023-03-28T00:22:11.587Z,-1.19
2023-03-28T00:23:03.975Z,-1.20
2023-03-28T00:24:02.176Z,-1.18
2023-03-28T00:24:53.656Z,-1.21
2023-03-28T00:25:45.220Z,-1.23
2023-03-28T00:26:37.585Z,-1.27
2023-03-28T00:27:29.611Z,-1.30
2023-03-28T00:28:21.277Z,-1.33
2023-03-28T00:29:16.513Z,-1.31
2023-03-28T00:30:09.453Z,-1.37
2023-03-28T00:31:03.739Z,-1.42
2023-03-28T00:31:55.577Z,-1.45
2023-03-28T00:32:47.236Z,-1.47
2023-03-28T00:33:38.961Z,-1.46
2023-03-28T00:34:30.628Z,-1.49
2023-03-28T00:35:22.704Z,-1.50
2023-03-28T00:36:18.659Z,-1.49
2023-03-28T00:37:10.690Z,-1.54
2023-03-28T00:38:03.467Z,-1.58
2023-03-28T00:38:57.988Z,-1.61
2023-03-28T00:39:51.121Z,-1.61
2023-03-28T00:40:45.979Z,-1.58
2023-03-28T00:41:41.455Z,-1.57
2023-03-28T00:42:32.914Z,-1.54
2023-03-28T00:43:47.868Z,-1.50
2023-03-28T00:44:48.775Z,-1.49
2023-03-28T00:45:42.901Z,-1.50
2023-03-28T00:46:42.504Z,-1.53
2023-03-28T00:47:49.536Z,-1.57
2023-03-28T00:48:49.815Z,-1.56
2023-03-28T00:49:43.858Z,-1.58
2023-03-28T00:50:40.833Z,-1.62
2023-03-28T00:51:40.253Z,-1.61
2023-03-28T00:52:56.549Z,-1.64
2023-03-28T00:53:50.325Z,-1.58
2023-03-28T00:54:42.074Z,-1.59
2023-03-28T00:55:50.439Z,-1.63
2023-03-28T00:56:48.310Z,-1.68
2023-03-28T00:57:42.074Z,-1.71
2023-03-28T00:58:41.980Z,-1.68
2023-03-28T00:59:36.343Z,-1.71
2023-03-28T01:00:30.848Z,-1.71
2023-03-28T01:01:24.126Z,-1.70
2023-03-28T01:02:15.869Z,-1.72
2023-03-28T01:03:13.561Z,-1.66
2023-03-28T01:04:10.020Z,-1.66
2023-03-28T01:05:03.873Z,-1.63
2023-03-28T01:05:57.904Z,-1.59
2023-03-28T01:06:59.113Z,-1.58
2023-03-28T01:07:58.111Z,-1.49
2023-03-28T01:08:50.865Z,-1.48
2023-03-28T01:09:43.709Z,-1.47
2023-03-28T01:10:36.091Z,-1.48
2023-03-28T01:11:32.926Z,-1.52
2023-03-28T01:12:25.192Z,-1.56
2023-03-28T01:13:23.966Z,-1.57
2023-03-28T01:14:20.826Z,-1.62
2023-03-28T01:15:13.044Z,-1.68
2023-03-28T01:16:17.473Z,-1.75
2023-03-28T01:17:11.465Z,-1.81
2023-03-28T01:18:10.562Z,-1.84
2023-03-28T01:19:02.660Z,-1.83
2023-03-28T01:20:26.861Z,-1.87
2023-03-28T01:21:40.284Z,-1.86
2023-03-28T01:23:06.195Z,-1.91
2023-03-28T01:24:23.050Z,-1.96
2023-03-28T01:25:43.736Z,-2.00
2023-03-28T01:27:03.712Z,-2.02
2023-03-28T01:28:07.735Z,-2.03
2023-03-28T01:29:41.811Z,-1.98
2023-03-28T01:31:04.989Z,-1.99
2023-03-28T01:33:01.738Z,-2.06
2023-03-28T01:34:12.119Z,-2.12
2023-03-28T01:35:28.437Z,-2.13
2023-03-28T01:36:56.962Z,-2.14
2023-03-28T01:38:20.646Z,-2.10
2023-03-28T01:39:23.180Z,-2.08
2023-03-28T01:40:49.049Z,-2.00
2023-03-28T01:41:43.711Z,-2.01
2023-03-28T01:42:48.043Z,-1.99
2023-03-28T01:43:48.721Z,-2.03
2023-03-28T01:45:09.867Z,-2.03
2023-03-28T01:46:15.947Z,-2.01
2023-03-28T01:47:17.874Z,-1.97
2023-03-28T01:48:30.603Z,-1.96
2023-03-28T01:49:47.012Z,-1.96
2023-03-28T01:50:59.102Z,-1.98
2023-03-28T01:51:56.935Z,-2.00
2023-03-28T01:53:04.816Z,-2.02
2023-03-28T01:54:12.571Z,-2.05
2023-03-28T01:55:14.171Z,-2.06
2023-03-28T01:56:24.415Z,-2.11
2023-03-28T01:58:03.114Z,-2.19
2023-03-28T01:59:30.556Z,-2.21
2023-03-28T02:00:48.849Z,-2.27
2023-03-28T02:02:00.513Z,-2.29
2023-03-28T02:03:00.593Z,-2.34
2023-03-28T02:04:20.721Z,-2.40
2023-03-28T02:05:27.731Z,-2.39
2023-03-28T02:06:23.210Z,-2.42
2023-03-28T02:07:20.804Z,-2.45
2023-03-28T02:08:37.122Z,-2.50
2023-03-28T02:09:49.996Z,-2.51
2023-03-28T02:10:53.469Z,-2.52
2023-03-28T02:12:25.171Z,-2.51
2023-03-28T02:13:36.508Z,-2.47
2023-03-28T02:14:53.744Z,-2.49
2023-03-28T02:16:23.236Z,-2.50
2023-03-28T02:17:33.561Z,-2.51
2023-03-28T02:18:44.644Z,-2.51
2023-03-28T02:20:11.633Z,-2.53
2023-03-28T02:21:33.060Z,-2.51
2023-03-28T02:23:22.872Z,-2.50
2023-03-28T02:24:33.317Z,-2.53
2023-03-28T02:25:57.969Z,-2.56
2023-03-28T02:27:08.663Z,-2.56
2023-03-28T02:28:10.910Z,-2.60
2023-03-28T02:29:30.559Z,-2.61
2023-03-28T02:30:32.747Z,-2.63
2023-03-28T02:31:24.864Z,-2.65
2023-03-28T02:32:22.143Z,-2.65
2023-03-28T02:33:32.894Z,-2.61
2023-03-28T02:34:25.546Z,-2.57
2023-03-28T02:35:26.590Z,-2.56
2023-03-28T02:36:43.078Z,-2.48
2023-03-28T02:37:43.565Z,-2.47
2023-03-28T02:38:53.803Z,-2.53
2023-03-28T02:39:45.329Z,-2.54
2023-03-28T02:40:53.988Z,-2.53
2023-03-28T02:42:10.274Z,-2.51
2023-03-28T02:43:44.890Z,-2.51
2023-03-28T02:44:57.808Z,-2.54
2023-03-28T02:45:55.384Z,-2.55
2023-03-28T02:47:01.862Z,-2.58
2023-03-28T02:48:04.078Z,-2.53
2023-03-28T02:49:23.056Z,-2.56
2023-03-28T02:50:33.826Z,-2.57
2023-03-28T02:51:40.791Z,-2.59
2023-03-28T02:52:51.635Z,-2.61
2023-03-28T02:54:18.466Z,-2.60
2023-03-28T02:55:50.857Z,-2.61
2023-03-28T02:57:11.423Z,-2.66
2023-03-28T02:58:17.992Z,-2.63
2023-03-28T02:59:47.173Z,-2.61
2023-03-28T03:00:40.152Z,-2.63
2023-03-28T03:01:32.204Z,-2.64
2023-03-28T03:02:23.941Z,-2.67
2023-03-28T03:03:18.413Z,-2.68
2023-03-28T03:04:10.126Z,-2.68
2023-03-28T03:05:01.710Z,-2.71
2023-03-28T03:05:53.392Z,-2.71
2023-03-28T03:06:48.604Z,-2.66
2023-03-28T03:07:40.439Z,-2.68
2023-03-28T03:08:32.851Z,-2.67
2023-03-28T03:09:26.969Z,-2.63
2023-03-28T03:10:18.905Z,-2.64
2023-03-28T03:11:12.525Z,-2.64
2023-03-28T03:12:04.294Z,-2.66
2023-03-28T03:12:57.996Z,-2.68
2023-03-28T03:13:49.527Z,-2.70
2023-03-28T03:14:42.161Z,-2.73
2023-03-28T03:16:00.574Z,-2.76
2023-03-28T03:16:52.593Z,-2.76
2023-03-28T03:17:44.559Z,-2.74
2023-03-28T03:18:36.934Z,-2.73
2023-03-28T03:19:30.316Z,-2.73
2023-03-28T03:20:23.059Z,-2.72
2023-03-28T03:21:14.630Z,-2.67
2023-03-28T03:22:07.452Z,-2.67
2023-03-28T03:23:01.776Z,-2.70
2023-03-28T03:23:54.998Z,-2.73
2023-03-28T03:24:46.472Z,-2.74
2023-03-28T03:25:38.558Z,-2.73
2023-03-28T03:26:37.596Z,-2.71
2023-03-28T03:27:31.386Z,-2.73
2023-03-28T03:28:23.180Z,-2.73
2023-03-28T03:29:16.885Z,-2.77
2023-03-28T03:30:10.266Z,-2.78
2023-03-28T03:31:23.172Z,-2.82
2023-03-28T03:32:39.413Z,-2.81
2023-03-28T03:33:32.547Z,-2.83
2023-03-28T03:34:28.083Z,-2.83
2023-03-28T03:35:22.904Z,-2.83
2023-03-28T03:36:17.176Z,-2.84
2023-03-28T03:37:11.629Z,-2.78
2023-03-28T03:38:03.675Z,-2.62
2023-03-28T03:38:55.254Z,-2.54
2023-03-28T03:39:48.154Z,-2.54
2023-03-28T03:40:47.858Z,-2.56
2023-03-28T03:41:40.483Z,-2.58
2023-03-28T03:42:33.305Z,-2.60
2023-03-28T03:43:25.078Z,-2.65
2023-03-28T03:44:16.677Z,-2.71
2023-03-28T03:45:09.697Z,-2.72
2023-03-28T03:46:02.613Z,-2.73
2023-03-28T03:46:54.636Z,-2.75
2023-03-28T03:47:46.266Z,-2.80
2023-03-28T03:48:38.175Z,-2.81
2023-03-28T03:49:41.692Z,-2.81
2023-03-28T03:50:33.420Z,-2.77
2023-03-28T03:51:25.100Z,-2.79
2023-03-28T03:52:19.565Z,-2.79
2023-03-28T03:53:11.714Z,-2.78
2023-03-28T03:54:12.578Z,-2.81
2023-03-28T03:55:06.389Z,-2.81
2023-03-28T03:56:04.277Z,-2.78
2023-03-28T03:57:14.434Z,-2.68
2023-03-28T03:58:06.399Z,-2.66
2023-03-28T03:59:00.466Z,-2.68
2023-03-28T03:59:57.398Z,-2.69
2023-03-28T04:00:50.787Z,-2.64
2023-03-28T04:02:14.783Z,-2.66
2023-03-28T04:03:25.829Z,-2.70
2023-03-28T04:04:19.376Z,-2.70
2023-03-28T04:05:27.360Z,-2.74
2023-03-28T04:06:29.411Z,-2.75
2023-03-28T04:07:21.486Z,-2.72
2023-03-28T04:08:16.426Z,-2.73
2023-03-28T04:09:08.942Z,-2.77
2023-03-28T04:10:21.749Z,-2.74
2023-03-28T04:11:14.062Z,-2.67
2023-03-28T04:12:08.454Z,-2.70
2023-03-28T04:13:11.439Z,-2.67
2023-03-28T04:14:04.254Z,-2.67
2023-03-28T04:14:57.814Z,-2.73
2023-03-28T04:16:01.792Z,-2.72
2023-03-28T04:17:04.464Z,-2.70
2023-03-28T04:18:04.828Z,-2.69
2023-03-28T04:19:04.098Z,-2.61
2023-03-28T04:19:57.518Z,-2.64
2023-03-28T04:20:55.293Z,-2.63
2023-03-28T04:22:08.301Z,-2.67
2023-03-28T04:23:01.114Z,-2.67
2023-03-28T04:23:55.648Z,-2.72
2023-03-28T04:25:04.505Z,-2.71
2023-03-28T04:26:03.196Z,-2.73
2023-03-28T04:27:17.600Z,-2.71
2023-03-28T04:28:11.726Z,-2.67
2023-03-28T04:29:13.204Z,-2.68
2023-03-28T04:30:11.117Z,-2.72
2023-03-28T04:31:29.471Z,-2.82
2023-03-28T04:32:54.066Z,-2.79
2023-03-28T04:33:49.590Z,-2.80
2023-03-28T04:34:45.836Z,-2.81
2023-03-28T04:35:42.250Z,-2.76
2023-03-28T04:36:34.425Z,-2.73
2023-03-28T04:37:28.588Z,-2.77
2023-03-28T04:38:29.089Z,-2.78
2023-03-28T04:39:27.113Z,-2.80
2023-03-28T04:40:27.950Z,-2.84
2023-03-28T04:41:38.875Z,-2.86
2023-03-28T04:42:50.891Z,-2.87
2023-03-28T04:43:54.077Z,-2.82
2023-03-28T04:44:47.776Z,-2.81
2023-03-28T04:45:39.577Z,-2.84
2023-03-28T04:46:50.996Z,-2.80
2023-03-28T04:47:42.987Z,-2.74
2023-03-28T04:48:41.429Z,-2.72
2023-03-28T04:49:34.815Z,-2.71
2023-03-28T04:50:26.323Z,-2.72
2023-03-28T04:51:18.026Z,-2.75
2023-03-28T04:52:09.566Z,-2.79
2023-03-28T04:53:01.317Z,-2.82
2023-03-28T04:53:53.839Z,-2.83
2023-03-28T04:55:05.085Z,-2.87
2023-03-28T04:55:58.059Z,-2.87
2023-03-28T04:56:51.570Z,-2.92
2023-03-28T04:57:50.542Z,-2.92
2023-03-28T04:58:45.201Z,-2.84
2023-03-28T04:59:36.985Z,-2.81
2023-03-28T05:00:29.561Z,-2.77
2023-03-28T05:01:22.493Z,-2.76
2023-03-28T05:02:40.288Z,-2.75
2023-03-28T05:03:34.157Z,-2.79
2023-03-28T05:04:27.877Z,-2.82
2023-03-28T05:05:20.861Z,-2.86
2023-03-28T05:06:12.564Z,-2.84
2023-03-28T05:07:04.564Z,-2.86
2023-03-28T05:07:58.977Z,-2.88
2023-03-28T05:08:50.433Z,-2.92
2023-03-28T05:09:42.176Z,-2.93
2023-03-28T05:10:34.064Z,-2.98
2023-03-28T05:11:31.056Z,-2.96
2023-03-28T05:12:22.587Z,-2.97
2023-03-28T05:13:34.957Z,-2.99
2023-03-28T05:14:36.220Z,-3.00
2023-03-28T05:15:37.129Z,-3.01
2023-03-28T05:16:44.906Z,-3.03
2023-03-28T05:17:55.423Z,-3.05
2023-03-28T05:18:56.195Z,-3.06
2023-03-28T05:20:11.053Z,-3.07
2023-03-28T05:21:15.529Z,-3.08
2023-03-28T05:22:07.164Z,-3.07
2023-03-28T05:23:01.518Z,-3.07
2023-03-28T05:23:53.488Z,-3.06
2023-03-28T05:24:48.255Z,-3.05
2023-03-28T05:25:42.127Z,-3.03
2023-03-28T05:26:34.912Z,-3.05
2023-03-28T05:27:26.416Z,-3.03
2023-03-28T05:28:19.747Z,-3.03
2023-03-28T05:29:15.071Z,-3.04
2023-03-28T05:30:12.297Z,-3.03
2023-03-28T05:31:06.489Z,-3.04
2023-03-28T05:31:58.441Z,-3.00
2023-03-28T05:32:54.436Z,-2.98
2023-03-28T05:33:46.310Z,-2.98
2023-03-28T05:34:47.866Z,-2.95
2023-03-28T05:35:39.852Z,-2.94
2023-03-28T05:36:31.348Z,-2.93
2023-03-28T05:37:23.009Z,-2.93
2023-03-28T05:38:19.955Z,-2.92
2023-03-28T05:39:18.663Z,-2.90
2023-03-28T05:40:13.084Z,-2.87
2023-03-28T05:41:09.148Z,-2.88
2023-03-28T05:42:00.866Z,-2.87
2023-03-28T05:42:52.675Z,-2.88
2023-03-28T05:43:46.713Z,-2.89
2023-03-28T05:44:48.264Z,-2.84
2023-03-28T05:46:04.653Z,-2.83
2023-03-28T05:47:04.795Z,-2.84
2023-03-28T05:47:57.176Z,-2.83
2023-03-28T05:48:50.429Z,-2.81
2023-03-28T05:49:43.310Z,-2.82
2023-03-28T05:50:35.243Z,-2.79
2023-03-28T05:51:30.215Z,-2.79
2023-03-28T05:52:23.227Z,-2.74
2023-03-28T05:53:15.653Z,-2.69
2023-03-28T05:54:07.484Z,-2.72
2023-03-28T05:54:58.914Z,-2.68
2023-03-28T05:55:50.957Z,-2.70
2023-03-28T05:56:42.767Z,-2.66
2023-03-28T05:57:34.812Z,-2.66
2023-03-28T05:58:28.460Z,-2.65
2023-03-28T05:59:24.721Z,-2.64
2023-03-28T06:00:18.455Z,-2.63
2023-03-28T06:01:10.010Z,-2.61
2023-03-28T06:02:03.261Z,-2.59
2023-03-28T06:02:55.611Z,-2.58
2023-03-28T06:03:57.202Z,-2.57
2023-03-28T06:04:49.403Z,-2.58
2023-03-28T06:05:41.834Z,-2.56
2023-03-28T06:06:45.570Z,-2.53
2023-03-28T06:07:42.656Z,-2.51
2023-03-28T06:08:40.009Z,-2.49
2023-03-28T06:09:32.143Z,-2.47
2023-03-28T06:10:26.457Z,-2.44
2023-03-28T06:11:35.527Z,-2.44
2023-03-28T06:12:31.470Z,-2.42
2023-03-28T06:13:26.450Z,-2.44
2023-03-28T06:14:20.919Z,-2.41
2023-03-28T06:15:13.070Z,-2.41
2023-03-28T06:16:09.245Z,-2.36
2023-03-28T06:17:01.565Z,-2.36
2023-03-28T06:18:00.730Z,-2.32
2023-03-28T06:18:52.773Z,-2.29
2023-03-28T06:20:04.726Z,-2.27
2023-03-28T06:20:56.505Z,-2.24
2023-03-28T06:21:48.217Z,-2.21
2023-03-28T06:22:40.360Z,-2.19
2023-03-28T06:23:35.222Z,-2.17
2023-03-28T06:24:27.564Z,-2.16
2023-03-28T06:25:19.597Z,-2.13
2023-03-28T06:26:11.246Z,-2.08
2023-03-28T06:27:06.479Z,-2.07
2023-03-28T06:28:02.888Z,-2.05
2023-03-28T06:28:55.412Z,-2.01
2023-03-28T06:29:54.690Z,-2.01
2023-03-28T06:30:50.322Z,-1.99
2023-03-28T06:31:43.245Z,-1.97
2023-03-28T06:32:34.799Z,-1.94
2023-03-28T06:33:27.382Z,-1.92
2023-03-28T06:34:19.062Z,-1.91
2023-03-28T06:35:30.887Z,-1.87
2023-03-28T06:36:22.802Z,-1.85
2023-03-28T06:37:14.418Z,-1.82
2023-03-28T06:38:21.076Z,-1.80
2023-03-28T06:39:16.417Z,-1.76
2023-03-28T06:40:09.856Z,-1.74
2023-03-28T06:41:01.476Z,-1.70
2023-03-28T06:41:53.447Z,-1.67
2023-03-28T06:42:49.650Z,-1.63
2023-03-28T06:43:47.139Z,-1.60
2023-03-28T06:44:57.115Z,-1.56
2023-03-28T06:45:54.579Z,-1.54
2023-03-28T06:46:46.524Z,-1.52
2023-03-28T06:47:38.077Z,-1.49
2023-03-28T06:48:33.173Z,-1.48
2023-03-28T06:49:52.588Z,-1.41
2023-03-28T06:51:04.051Z,-1.39
2023-03-28T06:51:55.594Z,-1.28
2023-03-28T06:52:47.073Z,-1.27
2023-03-28T06:53:40.774Z,-1.21
2023-03-28T06:54:33.291Z,-1.18
2023-03-28T06:55:24.801Z,-1.15
2023-03-28T06:56:16.642Z,-1.13
2023-03-28T06:57:09.008Z,-1.08
2023-03-28T06:58:02.265Z,-1.08
2023-03-28T06:59:06.858Z,-1.06
2023-03-28T07:00:00.665Z,-1.06
2023-03-28T07:01:07.319Z,-1.02
2023-03-28T07:02:23.901Z,-0.97
2023-03-28T07:03:18.451Z,-0.97
2023-03-28T07:04:10.513Z,-0.97
2023-03-28T07:05:03.021Z,-0.96
2023-03-28T07:05:54.564Z,-0.93
2023-03-28T07:06:49.145Z,-0.88
2023-03-28T07:07:41.201Z,-0.85
2023-03-28T07:08:33.384Z,-0.80
2023-03-28T07:09:25.188Z,-0.80
2023-03-28T07:10:31.858Z,-0.77
2023-03-28T07:11:24.330Z,-0.76
2023-03-28T07:12:15.944Z,-0.76
2023-03-28T07:13:08.233Z,-0.75
2023-03-28T07:14:05.175Z,-0.75
2023-03-28T07:14:56.604Z,-0.71
2023-03-28T07:15:48.540Z,-0.68
2023-03-28T07:16:40.306Z,-0.66
2023-03-28T07:17:31.929Z,-0.61
2023-03-28T07:18:23.622Z,-0.56
2023-03-28T07:19:15.253Z,-0.50
2023-03-28T07:20:10.523Z,-0.52
2023-03-28T07:21:09.580Z,-0.53
2023-03-28T07:22:01.613Z,-0.51
2023-03-28T07:22:53.631Z,-0.51
2023-03-28T07:23:45.463Z,-0.50
2023-03-28T07:24:39.120Z,-0.46
2023-03-28T07:25:34.008Z,-0.39
2023-03-28T07:26:27.472Z,-0.33
2023-03-28T07:27:19.309Z,-0.30
2023-03-28T07:28:10.934Z,-0.28
2023-03-28T07:29:03.524Z,-0.27
2023-03-28T07:29:55.032Z,-0.24
2023-03-28T07:30:46.509Z,-0.12
2023-03-28T07:31:38.065Z,-0.12
2023-03-28T07:32:35.817Z,-0.01
2023-03-28T07:33:37.986Z,0.00
2023-03-28T07:34:34.661Z,0.04
2023-03-28T07:35:27.931Z,0.06
2023-03-28T07:36:21.567Z,0.14
2023-03-28T07:37:17.415Z,0.21
2023-03-28T07:38:31.930Z,0.23
2023-03-28T07:39:23.465Z,0.29
2023-03-28T07:40:19.002Z,0.31
2023-03-28T07:41:11.594Z,0.37
2023-03-28T07:42:03.932Z,0.45
2023-03-28T07:42:55.513Z,0.45
2023-03-28T07:43:47.080Z,0.49
2023-03-28T07:44:41.016Z,0.51
2023-03-28T07:45:33.871Z,0.54
2023-03-28T07:46:25.678Z,0.56
2023-03-28T07:47:18.149Z,0.56
2023-03-28T07:48:09.692Z,0.56
2023-03-28T07:49:01.279Z,0.58
2023-03-28T07:49:53.352Z,0.64
2023-03-28T07:50:50.760Z,0.78
2023-03-28T07:51:42.682Z,0.77
2023-03-28T07:52:34.678Z,0.80
2023-03-28T07:53:26.158Z,0.83
2023-03-28T07:54:18.446Z,0.96
2023-03-28T07:55:13.787Z,1.01
2023-03-28T07:56:13.208Z,1.08
2023-03-28T07:57:30.984Z,1.20
2023-03-28T07:58:26.257Z,1.21
2023-03-28T07:59:20.951Z,1.20
2023-03-28T08:00:17.444Z,1.21
2023-03-28T08:01:24.940Z,1.31
2023-03-28T08:02:26.107Z,1.31
2023-03-28T08:03:18.925Z,1.29
2023-03-28T08:04:13.254Z,1.36
2023-03-28T08:05:24.106Z,1.54
2023-03-28T08:06:31.153Z,1.54
2023-03-28T08:07:25.552Z,1.52
2023-03-28T08:08:19.033Z,1.50
2023-03-28T08:09:17.007Z,1.49
2023-03-28T08:10:13.114Z,1.53
2023-03-28T08:11:04.856Z,1.53
2023-03-28T08:11:56.890Z,1.56
2023-03-28T08:12:50.407Z,1.58
2023-03-28T08:13:42.006Z,1.58
2023-03-28T08:14:42.221Z,1.62
2023-03-28T08:15:34.881Z,1.65
2023-03-28T08:16:26.513Z,1.67
2023-03-28T08:17:18.259Z,1.69
2023-03-28T08:18:09.965Z,1.71
2023-03-28T08:20:06.527Z,1.72
2023-03-28T08:21:18.604Z,1.84
2023-03-28T08:22:11.522Z,1.92
2023-03-28T08:23:11.471Z,2.01
2023-03-28T08:24:33.001Z,2.05
2023-03-28T08:25:33.053Z,2.07
2023-03-28T08:26:28.040Z,2.11
2023-03-28T08:27:22.666Z,2.16
2023-03-28T08:28:17.938Z,2.15
2023-03-28T08:29:09.645Z,2.17
2023-03-28T08:30:04.024Z,2.19
2023-03-28T08:30:58.563Z,2.27
2023-03-28T08:31:50.800Z,2.31
2023-03-28T08:32:42.345Z,2.30
2023-03-28T08:33:34.168Z,2.30
2023-03-28T08:34:26.105Z,2.32
2023-03-28T08:35:21.159Z,2.36
2023-03-28T08:36:16.290Z,2.43
2023-03-28T08:37:08.918Z,2.57
2023-03-28T08:38:00.827Z,2.61
2023-03-28T08:38:54.986Z,2.71
2023-03-28T08:39:47.285Z,2.88
2023-03-28T08:40:49.915Z,3.08
2023-03-28T08:42:23.619Z,3.18
2023-03-28T08:43:23.416Z,3.18
2023-03-28T08:44:43.161Z,3.18
2023-03-28T08:45:45.471Z,3.25
2023-03-28T08:46:42.340Z,3.24
2023-03-28T08:47:53.520Z,3.22
2023-03-28T08:48:48.397Z,3.28
2023-03-28T08:49:48.687Z,3.38
2023-03-28T08:51:01.021Z,3.49
2023-03-28T08:51:59.257Z,3.61
2023-03-28T08:52:52.225Z,3.69
2023-03-28T08:53:51.492Z,3.75
2023-03-28T08:54:51.611Z,3.81
2023-03-28T08:55:43.753Z,3.77
2023-03-28T08:56:43.135Z,3.85
2023-03-28T08:57:38.929Z,3.95
2023-03-28T08:58:41.018Z,3.98
2023-03-28T08:59:59.996Z,4.09
2023-03-28T09:00:52.879Z,4.14
2023-03-28T09:01:45.478Z,4.20
2023-03-28T09:02:37.259Z,4.29
2023-03-28T09:03:33.112Z,4.41
2023-03-28T09:04:38.168Z,4.56
2023-03-28T09:05:50.062Z,4.67
2023-03-28T09:06:46.237Z,4.79
2023-03-28T09:08:09.279Z,4.92
2023-03-28T09:09:13.098Z,5.06
2023-03-28T09:10:21.063Z,5.12
2023-03-28T09:11:58.467Z,5.21
2023-03-28T09:13:10.354Z,5.35
2023-03-28T09:14:05.226Z,5.43
2023-03-28T09:15:24.510Z,5.27
2023-03-28T09:16:44.891Z,5.20
2023-03-28T09:17:59.890Z,5.19
2023-03-28T09:19:21.769Z,5.23
2023-03-28T09:20:33.340Z,5.29
2023-03-28T09:22:13.074Z,5.36
2023-03-28T09:23:18.292Z,5.22
2023-03-28T09:24:56.223Z,5.22
2023-03-28T09:26:04.383Z,5.35
2023-03-28T09:27:06.637Z,5.44
2023-03-28T09:28:31.825Z,5.47
2023-03-28T09:29:25.961Z,5.57
2023-03-28T09:30:27.423Z,5.67
2023-03-28T09:31:27.150Z,5.61
2023-03-28T09:32:33.029Z,5.60
2023-03-28T09:33:35.974Z,5.46
2023-03-28T09:34:39.894Z,5.60
2023-03-28T09:35:33.448Z,5.67
2023-03-28T09:36:41.467Z,5.67
2023-03-28T09:37:45.860Z,5.56
2023-03-28T09:38:46.803Z,5.54
2023-03-28T09:39:52.546Z,5.60
2023-03-28T09:40:47.635Z,5.65
2023-03-28T09:42:01.012Z,5.68
2023-03-28T09:43:36.414Z,5.70
2023-03-28T09:44:58.569Z,5.66
2023-03-28T09:46:16.757Z,5.61
2023-03-28T09:47:25.287Z,5.65
2023-03-28T09:48:30.917Z,5.70
2023-03-28T09:49:26.366Z,5.79
2023-03-28T09:50:25.721Z,5.89
2023-03-28T09:51:21.811Z,6.00
2023-03-28T09:52:17.523Z,5.99
2023-03-28T09:53:25.054Z,5.95
2023-03-28T09:54:18.838Z,6.07
2023-03-28T09:55:24.179Z,6.18
2023-03-28T09:56:38.113Z,6.14
2023-03-28T09:58:08.376Z,6.15
2023-03-28T09:59:29.847Z,6.07
2023-03-28T10:00:26.404Z,6.15
2023-03-28T10:01:51.856Z,6.15
2023-03-28T10:02:53.251Z,6.06
2023-03-28T10:03:56.949Z,6.09
2023-03-28T10:05:33.556Z,6.15
2023-03-28T10:06:32.057Z,6.22
2023-03-28T10:07:45.252Z,6.22
2023-03-28T10:09:28.696Z,6.31
2023-03-28T10:10:28.759Z,6.38
2023-03-28T10:11:49.316Z,6.52
2023-03-28T10:12:43.541Z,6.65
2023-03-28T10:13:53.444Z,6.68
2023-03-28T10:14:47.351Z,6.56
2023-03-28T10:15:59.411Z,6.50
2023-03-28T10:17:36.713Z,6.64
2023-03-28T10:18:31.598Z,6.70
2023-03-28T10:19:48.335Z,6.76
2023-03-28T10:20:50.884Z,6.82
2023-03-28T10:21:48.826Z,6.98
2023-03-28T10:22:49.945Z,6.93
2023-03-28T10:23:47.798Z,6.93
2023-03-28T10:24:40.642Z,7.07
2023-03-28T10:25:42.429Z,7.11
2023-03-28T10:26:35.429Z,7.01
2023-03-28T10:27:34.932Z,7.01
2023-03-28T10:28:32.974Z,7.13
2023-03-28T10:29:27.048Z,7.24
2023-03-28T10:30:29.386Z,7.21
2023-03-28T10:31:32.103Z,7.17
2023-03-28T10:32:43.230Z,7.15
2023-03-28T10:33:59.352Z,7.10
2023-03-28T10:35:29.896Z,6.93
2023-03-28T10:36:32.861Z,7.06
2023-03-28T10:37:32.182Z,7.25
2023-03-28T10:38:43.209Z,7.37
2023-03-28T10:40:22.391Z,7.44
2023-03-28T10:41:32.266Z,7.36
2023-03-28T10:42:42.410Z,7.47
2023-03-28T10:43:45.100Z,7.39
2023-03-28T10:45:01.168Z,7.43
2023-03-28T10:45:55.155Z,7.33
2023-03-28T10:46:59.105Z,7.32
2023-03-28T10:48:05.878Z,7.36
2023-03-28T10:49:06.144Z,7.41
2023-03-28T10:50:01.346Z,7.46
2023-03-28T10:50:56.930Z,7.55
2023-03-28T10:51:48.689Z,7.73
2023-03-28T10:53:02.046Z,7.91
2023-03-28T10:54:14.674Z,7.94
2023-03-28T10:55:19.793Z,7.83
2023-03-28T10:56:50.665Z,7.62
2023-03-28T10:58:05.843Z,7.47
2023-03-28T10:59:17.646Z,7.62
2023-03-28T11:00:21.155Z,7.72
2023-03-28T11:01:19.306Z,7.68
2023-03-28T11:02:34.283Z,7.73
2023-03-28T11:03:51.458Z,7.77
2023-03-28T11:05:13.792Z,7.86
2023-03-28T11:06:15.054Z,7.79
2023-03-28T11:07:30.768Z,7.76
2023-03-28T11:09:06.745Z,7.88
2023-03-28T11:11:02.455Z,7.99
2023-03-28T11:12:28.657Z,7.85
2023-03-28T11:13:48.869Z,7.90
2023-03-28T11:14:57.042Z,7.97
2023-03-28T11:16:18.198Z,7.95
2023-03-28T11:17:34.564Z,7.89
2023-03-28T11:18:52.229Z,7.89
2023-03-28T11:20:01.155Z,8.01
2023-03-28T11:21:15.005Z,8.01
2023-03-28T11:22:17.246Z,8.08
2023-03-28T11:23:44.804Z,8.23
2023-03-28T11:25:28.298Z,8.22
2023-03-28T11:27:15.908Z,8.17
2023-03-28T11:28:37.102Z,8.36
2023-03-28T11:29:49.997Z,8.34
2023-03-28T11:30:56.266Z,8.22
2023-03-28T11:32:21.529Z,8.31
2023-03-28T11:33:25.334Z,8.50
2023-03-28T11:34:32.812Z,8.42
2023-03-28T11:35:44.032Z,8.30
2023-03-28T11:36:45.200Z,8.35
2023-03-28T11:37:45.972Z,8.26
2023-03-28T11:38:46.569Z,8.23
2023-03-28T11:39:49.317Z,8.18
2023-03-28T11:41:17.814Z,8.41
2023-03-28T11:42:41.762Z,8.57
2023-03-28T11:44:00.020Z,8.65
2023-03-28T11:45:02.730Z,8.77
2023-03-28T11:46:04.250Z,8.75
2023-03-28T11:47:06.045Z,8.84
2023-03-28T11:48:39.650Z,8.70
2023-03-28T11:49:45.770Z,8.65
2023-03-28T11:51:06.322Z,8.46
2023-03-28T11:52:42.474Z,8.59
2023-03-28T11:53:58.954Z,8.55
2023-03-28T11:55:14.434Z,8.60
2023-03-28T11:56:37.621Z,8.76
2023-03-28T11:58:04.443Z,8.87
2023-03-28T11:59:02.995Z,8.93
2023-03-28T12:00:22.979Z,8.99
2023-03-28T12:01:32.398Z,9.04
2023-03-28T12:02:39.912Z,9.10
2023-03-28T12:03:44.199Z,9.29
2023-03-28T12:04:49.790Z,9.39
2023-03-28T12:05:49.254Z,9.17
2023-03-28T12:07:02.917Z,9.21
2023-03-28T12:08:40.471Z,9.25
2023-03-28T12:09:49.445Z,9.45
2023-03-28T12:10:45.969Z,9.58
2023-03-28T12:12:09.776Z,9.66
2023-03-28T12:13:15.848Z,9.67
2023-03-28T12:14:36.245Z,9.51
2023-03-28T12:15:53.157Z,9.38
2023-03-28T12:16:50.924Z,9.45
2023-03-28T12:17:49.964Z,9.33
2023-03-28T12:18:48.042Z,9.27
2023-03-28T12:20:06.020Z,9.20
2023-03-28T12:21:14.881Z,9.27
2023-03-28T12:22:43.188Z,9.25
2023-03-28T12:23:53.417Z,9.02
2023-03-28T12:25:21.746Z,8.91
2023-03-28T12:26:30.359Z,8.90
2023-03-28T12:27:29.289Z,8.86
2023-03-28T12:28:38.958Z,8.93
2023-03-28T12:29:41.919Z,8.95
2023-03-28T12:30:42.985Z,8.92
2023-03-28T12:31:48.335Z,8.89
2023-03-28T12:33:23.027Z,8.75
2023-03-28T12:35:16.027Z,8.69
2023-03-28T12:36:30.378Z,8.75
2023-03-28T12:37:31.010Z,8.77
2023-03-28T12:39:00.639Z,8.61
2023-03-28T12:40:14.920Z,8.73
2023-03-28T12:41:11.965Z,8.86
2023-03-28T12:42:08.568Z,8.70
2023-03-28T12:43:01.285Z,8.77
2023-03-28T12:44:11.282Z,8.75
2023-03-28T12:45:18.284Z,8.67
2023-03-28T12:46:16.113Z,8.59
2023-03-28T12:47:18.711Z,8.59
2023-03-28T12:48:21.621Z,8.67
2023-03-28T12:49:20.739Z,8.89
2023-03-28T12:50:27.949Z,9.10
2023-03-28T12:51:36.860Z,9.25
2023-03-28T12:52:36.657Z,9.30
2023-03-28T12:53:32.988Z,9.24
2023-03-28T12:54:27.561Z,9.28
2023-03-28T12:55:23.824Z,9.38
2023-03-28T12:56:16.507Z,9.48
2023-03-28T12:57:09.240Z,9.56
2023-03-28T12:58:26.593Z,9.51
2023-03-28T12:59:39.833Z,9.41
2023-03-28T13:01:02.376Z,9.28
2023-03-28T13:02:32.817Z,9.40
2023-03-28T13:04:04.249Z,9.50
2023-03-28T13:05:18.679Z,9.59
2023-03-28T13:06:36.497Z,9.61
2023-03-28T13:08:07.356Z,9.73
2023-03-28T13:09:12.858Z,9.80
2023-03-28T13:10:20.638Z,9.75
2023-03-28T13:11:49.199Z,9.53
2023-03-28T13:12:58.136Z,9.61
2023-03-28T13:14:05.684Z,9.67
2023-03-28T13:15:28.793Z,9.85
2023-03-28T13:16:43.642Z,10.03
2023-03-28T13:17:38.069Z,10.07
2023-03-28T13:18:32.470Z,10.07
2023-03-28T13:19:42.738Z,10.06
2023-03-28T13:20:34.474Z,10.13
2023-03-28T13:21:42.736Z,10.20
2023-03-28T13:22:50.454Z,10.09
2023-03-28T13:23:48.783Z,10.18
2023-03-28T13:24:40.605Z,10.01
2023-03-28T13:25:36.831Z,9.88
2023-03-28T13:26:58.865Z,10.01
2023-03-28T13:27:53.293Z,10.18
2023-03-28T13:28:55.666Z,10.18
2023-03-28T13:29:51.608Z,10.21
2023-03-28T13:30:46.541Z,10.21
2023-03-28T13:31:43.729Z,10.32
2023-03-28T13:32:42.758Z,10.28